createdAt,value
2022-09-26T00:01:32.390Z,15.48
2022-09-26T00:04:07.392Z,20.52
2022-09-26T00:06:33.837Z,17.05
2022-09-26T00:09:00.259Z,16.45
2022-09-26T00:11:29.655Z,15.85
2022-09-26T00:13:58.829Z,15.13
2022-09-26T00:16:26.330Z,16.00
2022-09-26T00:18:55.496Z,22.23
2022-09-26T00:21:23.276Z,16.48
2022-09-26T00:23:49.907Z,13.95
2022-09-26T00:26:18.585Z,18.27
2022-09-26T00:28:44.993Z,17.85
2022-09-26T00:31:20.743Z,21.42
2022-09-26T00:33:48.055Z,20.60
2022-09-26T00:36:15.098Z,20.45
2022-09-26T00:38:41.491Z,21.15
2022-09-26T00:41:08.458Z,22.88
2022-09-26T00:43:45.192Z,22.65
2022-09-26T00:46:48.067Z,17.05
2022-09-26T00:49:22.565Z,19.25
2022-09-26T00:51:55.454Z,19.17
2022-09-26T00:54:22.340Z,18.33
2022-09-26T00:56:52.334Z,19.95
2022-09-26T00:59:32.750Z,18.85
2022-09-26T01:01:59.937Z,17.05
2022-09-26T01:04:28.940Z,15.02
2022-09-26T01:06:58.215Z,16.60
2022-09-26T01:09:25.467Z,17.08
2022-09-26T01:11:53.676Z,16.25
2022-09-26T01:14:21.489Z,15.07
2022-09-26T01:16:51.165Z,15.95
2022-09-26T01:19:29.843Z,16.17
2022-09-26T01:22:22.361Z,14.23
2022-09-26T01:25:07.571Z,17.05
2022-09-26T01:28:08.171Z,15.93
2022-09-26T01:31:01.298Z,17.90
2022-09-26T01:33:41.679Z,13.30
2022-09-26T01:36:34.612Z,15.65
2022-09-26T01:39:29.730Z,14.93
2022-09-26T01:42:16.078Z,14.55
2022-09-26T01:44:50.944Z,12.85
2022-09-26T01:47:31.638Z,13.38
2022-09-26T01:50:17.851Z,15.65
2022-09-26T01:52:56.349Z,13.05
2022-09-26T01:55:29.620Z,16.75
2022-09-26T01:58:21.408Z,14.47
2022-09-26T02:00:50.288Z,14.75
2022-09-26T02:03:21.655Z,13.63
2022-09-26T02:06:02.974Z,18.67
2022-09-26T02:08:48.610Z,13.93
2022-09-26T02:11:18.465Z,15.02
2022-09-26T02:13:55.576Z,15.05
2022-09-26T02:16:32.033Z,16.08
2022-09-26T02:19:05.410Z,13.20
2022-09-26T02:21:31.838Z,15.13
2022-09-26T02:23:58.293Z,14.18
2022-09-26T02:26:25.036Z,15.48
2022-09-26T02:28:51.580Z,15.50
2022-09-26T02:31:22.049Z,14.63
2022-09-26T02:33:49.897Z,13.85
2022-09-26T02:36:18.318Z,13.35
2022-09-26T02:38:44.743Z,15.57
2022-09-26T02:41:33.251Z,13.73
2022-09-26T02:44:18.918Z,14.23
2022-09-26T02:46:56.778Z,14.73
2022-09-26T02:50:20.180Z,15.35
2022-09-26T02:53:07.986Z,17.05
2022-09-26T02:55:41.623Z,17.45
2022-09-26T02:58:35.918Z,15.38
2022-09-26T03:01:23.766Z,16.48
2022-09-26T03:03:53.970Z,15.30
2022-09-26T03:06:29.468Z,17.33
2022-09-26T03:08:56.979Z,19.40
2022-09-26T03:11:26.090Z,17.77
2022-09-26T03:13:54.941Z,18.25
2022-09-26T03:16:23.666Z,17.60
2022-09-26T03:19:05.786Z,18.70
2022-09-26T03:21:36.125Z,17.92
2022-09-26T03:24:03.688Z,21.45
2022-09-26T03:26:31.825Z,22.73
2022-09-26T03:28:58.237Z,22.35
2022-09-26T03:31:28.333Z,24.80
2022-09-26T03:33:54.824Z,25.70
2022-09-26T03:36:22.654Z,24.63
2022-09-26T03:38:49.080Z,23.65
2022-09-26T03:41:15.473Z,26.88
2022-09-26T03:43:43.639Z,30.65
2022-09-26T03:46:15.756Z,29.95
2022-09-26T03:48:42.278Z,29.10
2022-09-26T03:51:11.935Z,28.63
2022-09-26T03:53:40.840Z,27.75
2022-09-26T03:56:10.750Z,27.02
2022-09-26T03:58:37.613Z,31.15
2022-09-26T04:01:10.033Z,23.10
2022-09-26T04:03:38.193Z,25.08
2022-09-26T04:06:06.184Z,22.35
2022-09-26T04:08:32.539Z,26.17
2022-09-26T04:11:07.533Z,25.55
2022-09-26T04:13:50.533Z,18.40
2022-09-26T04:16:20.173Z,22.50
2022-09-26T04:18:47.027Z,18.38
2022-09-26T04:21:16.719Z,19.95
2022-09-26T04:23:44.149Z,19.85
2022-09-26T04:26:17.492Z,15.65
2022-09-26T04:28:47.448Z,18.92
2022-09-26T04:31:13.871Z,18.45
2022-09-26T04:33:40.536Z,17.00
2022-09-26T04:36:10.307Z,15.25
2022-09-26T04:38:37.050Z,15.27
2022-09-26T04:41:05.336Z,16.42
2022-09-26T04:43:31.968Z,14.48
2022-09-26T04:45:58.800Z,21.00
2022-09-26T04:48:25.528Z,15.35
2022-09-26T04:50:51.992Z,16.38
2022-09-26T04:53:19.318Z,15.38
2022-09-26T04:55:47.076Z,15.52
2022-09-26T04:58:14.657Z,15.88
2022-09-26T05:00:45.295Z,13.40
2022-09-26T05:03:13.617Z,17.83
2022-09-26T05:05:41.302Z,12.88
2022-09-26T05:08:09.515Z,13.98
2022-09-26T05:10:36.284Z,13.73
2022-09-26T05:13:03.428Z,14.15
2022-09-26T05:15:30.892Z,12.55
2022-09-26T05:18:01.108Z,16.23
2022-09-26T05:20:29.374Z,15.45
2022-09-26T05:22:59.097Z,14.52
2022-09-26T05:25:45.552Z,17.70
2022-09-26T05:28:12.383Z,12.73
2022-09-26T05:30:39.381Z,10.90
2022-09-26T05:33:05.882Z,13.15
2022-09-26T05:35:35.278Z,13.55
2022-09-26T05:38:03.109Z,13.75
2022-09-26T05:40:49.674Z,13.82
2022-09-26T05:43:16.529Z,13.60
2022-09-26T05:45:43.096Z,12.70
2022-09-26T05:48:09.704Z,12.50
2022-09-26T05:50:38.424Z,15.75
2022-09-26T05:53:06.823Z,11.43
2022-09-26T05:55:33.211Z,12.68
2022-09-26T05:57:59.668Z,12.90
2022-09-26T06:00:27.205Z,12.98
2022-09-26T06:02:58.229Z,12.45
2022-09-26T06:05:25.682Z,14.40
2022-09-26T06:07:52.856Z,12.65
2022-09-26T06:10:22.039Z,13.18
2022-09-26T06:12:51.055Z,11.25
2022-09-26T06:15:17.935Z,11.63
2022-09-26T06:17:45.340Z,12.43
2022-09-26T06:20:12.287Z,13.88
2022-09-26T06:22:43.040Z,14.93
2022-09-26T06:25:10.452Z,16.42
2022-09-26T06:27:38.791Z,12.90
2022-09-26T06:30:10.525Z,12.38
2022-09-26T06:32:39.184Z,13.27
2022-09-26T06:35:06.750Z,14.63
2022-09-26T06:37:33.248Z,13.60
2022-09-26T06:40:00.780Z,9.55
2022-09-26T06:42:27.165Z,14.13
2022-09-26T06:44:53.830Z,12.40
2022-09-26T06:47:20.287Z,11.60
2022-09-26T06:49:48.384Z,6.60
2022-09-26T06:52:14.752Z,9.02
2022-09-26T06:54:41.540Z,8.23
2022-09-26T06:57:11.671Z,16.80
2022-09-26T06:59:40.601Z,8.63
2022-09-26T07:02:09.281Z,10.55
2022-09-26T07:04:35.916Z,6.28
2022-09-26T07:07:02.464Z,6.20
2022-09-26T07:09:29.016Z,8.18
2022-09-26T07:12:14.315Z,5.18
2022-09-26T07:14:42.307Z,8.00
2022-09-26T07:17:14.272Z,7.20
2022-09-26T07:19:40.969Z,9.02
2022-09-26T07:22:08.071Z,5.88
2022-09-26T07:24:34.986Z,6.22
2022-09-26T07:27:02.081Z,4.82
2022-09-26T07:29:29.509Z,6.80
2022-09-26T07:31:56.027Z,7.57
2022-09-26T07:34:25.222Z,9.40
2022-09-26T07:36:52.212Z,8.18
2022-09-26T07:39:18.896Z,8.13
2022-09-26T07:41:46.080Z,8.18
2022-09-26T07:47:18.666Z,6.70
2022-09-26T07:50:03.533Z,5.10
2022-09-26T07:52:30.905Z,10.57
2022-09-26T07:54:57.324Z,7.43
2022-09-26T07:57:24.019Z,8.68
2022-09-26T07:59:51.134Z,6.18
2022-09-26T08:02:28.691Z,7.13
2022-09-26T08:05:00.168Z,5.88
2022-09-26T08:07:26.661Z,6.97
2022-09-26T08:09:54.011Z,6.30
2022-09-26T08:12:20.434Z,6.63
2022-09-26T08:14:51.339Z,8.57
2022-09-26T08:17:17.793Z,7.95
2022-09-26T08:19:44.340Z,9.77
2022-09-26T08:22:11.784Z,7.68
2022-09-26T08:24:41.927Z,11.60
2022-09-26T08:27:09.859Z,6.43
2022-09-26T08:29:36.224Z,10.27
2022-09-26T08:32:04.267Z,5.40
2022-09-26T08:34:32.043Z,5.15
2022-09-26T08:36:58.593Z,8.25
2022-09-26T08:39:26.472Z,8.00
2022-09-26T08:42:09.532Z,8.63
2022-09-26T08:45:35.803Z,7.65
2022-09-26T08:48:44.384Z,8.88
2022-09-26T08:51:35.325Z,6.97
2022-09-26T08:54:18.910Z,8.07
2022-09-26T08:56:57.550Z,8.10
2022-09-26T08:59:37.991Z,6.10
2022-09-26T09:02:12.790Z,6.35
2022-09-26T09:05:06.735Z,9.80
2022-09-26T09:07:33.170Z,5.23
2022-09-26T09:10:04.722Z,5.85
2022-09-26T09:12:58.331Z,6.75
2022-09-26T09:15:28.986Z,7.07
2022-09-26T09:18:12.656Z,7.10
2022-09-26T09:23:37.758Z,5.85
2022-09-26T09:29:37.616Z,6.55
2022-09-26T09:32:04.754Z,7.17
2022-09-26T09:34:42.479Z,4.45
2022-09-26T09:37:15.568Z,4.80
2022-09-26T09:39:45.393Z,3.78
2022-09-26T09:42:20.861Z,7.28
2022-09-26T09:44:53.995Z,3.53
2022-09-26T09:47:20.762Z,3.25
2022-09-26T09:49:48.886Z,6.47
2022-09-26T09:52:30.873Z,5.85
2022-09-26T09:55:34.687Z,6.38
2022-09-26T09:58:07.553Z,7.03
2022-09-26T10:00:41.499Z,4.07
2022-09-26T10:03:28.730Z,5.40
2022-09-26T10:06:01.187Z,9.25
2022-09-26T10:08:31.311Z,6.88
2022-09-26T10:11:23.313Z,3.47
2022-09-26T10:13:53.830Z,5.13
2022-09-26T10:16:20.510Z,5.40
2022-09-26T10:19:02.346Z,5.68
2022-09-26T10:21:35.454Z,5.30
2022-09-26T10:24:06.795Z,4.30
2022-09-26T10:26:36.017Z,3.50
2022-09-26T10:29:21.326Z,5.82
2022-09-26T10:31:55.579Z,4.10
2022-09-26T10:34:24.943Z,4.57
2022-09-26T10:36:52.276Z,3.70
2022-09-26T10:39:39.942Z,2.55
2022-09-26T10:42:16.028Z,9.05
2022-09-26T10:44:43.124Z,11.93
2022-09-26T10:47:16.773Z,14.98
2022-09-26T10:49:51.667Z,2.78
2022-09-26T10:52:34.535Z,5.03
2022-09-26T10:55:16.296Z,9.55
2022-09-26T10:57:55.216Z,5.28
2022-09-26T11:00:39.022Z,6.15
2022-09-26T11:03:12.953Z,4.72
2022-09-26T11:05:57.938Z,6.15
2022-09-26T11:08:30.085Z,5.30
2022-09-26T11:10:59.688Z,6.20
2022-09-26T11:13:30.031Z,7.78
2022-09-26T11:16:20.280Z,4.53
2022-09-26T11:19:05.063Z,4.18
2022-09-26T11:22:02.184Z,7.15
2022-09-26T11:24:45.916Z,5.28
2022-09-26T11:27:43.379Z,7.03
2022-09-26T11:30:19.515Z,6.93
2022-09-26T11:32:52.271Z,4.57
2022-09-26T11:35:29.694Z,6.70
2022-09-26T11:38:25.675Z,8.02
2022-09-26T11:41:07.403Z,5.18
2022-09-26T11:44:05.040Z,6.40
2022-09-26T11:46:47.500Z,2.67
2022-09-26T11:49:35.901Z,4.88
2022-09-26T11:52:29.509Z,2.03
2022-09-26T11:55:17.099Z,4.75
2022-09-26T11:58:14.779Z,8.38
2022-09-26T12:01:16.864Z,5.00
2022-09-26T12:04:07.642Z,4.88
2022-09-26T12:06:47.469Z,6.05
2022-09-26T12:09:24.859Z,8.07
2022-09-26T12:12:09.669Z,3.55
2022-09-26T12:15:08.503Z,4.35
2022-09-26T12:17:52.986Z,4.13
2022-09-26T12:23:34.009Z,9.40
2022-09-26T12:26:14.229Z,2.72
2022-09-26T12:28:55.731Z,6.97
2022-09-26T12:31:39.029Z,5.22
2022-09-26T12:34:24.651Z,4.55
2022-09-26T12:37:05.312Z,4.63
2022-09-26T12:39:50.776Z,3.45
2022-09-26T12:42:26.582Z,8.95
2022-09-26T12:45:15.336Z,3.10
2022-09-26T12:47:51.858Z,2.92
2022-09-26T12:50:30.843Z,10.32
2022-09-26T12:53:24.797Z,2.88
2022-09-26T12:56:12.500Z,2.00
2022-09-26T12:58:44.796Z,5.05
2022-09-26T13:01:33.084Z,5.57
2022-09-26T13:04:08.179Z,4.57
2022-09-26T13:07:14.686Z,7.13
2022-09-26T13:09:47.709Z,5.57
2022-09-26T13:13:03.662Z,4.75
2022-09-26T13:15:53.166Z,5.55
2022-09-26T13:18:33.139Z,5.57
2022-09-26T13:21:09.319Z,3.47
2022-09-26T13:26:43.714Z,3.25
2022-09-26T13:29:23.648Z,7.75
2022-09-26T13:31:58.831Z,3.50
2022-09-26T13:34:34.665Z,4.22
2022-09-26T13:37:04.687Z,3.90
2022-09-26T13:39:51.290Z,3.45
2022-09-26T13:43:00.735Z,3.30
2022-09-26T13:45:49.036Z,2.08
2022-09-26T13:48:26.989Z,1.77
2022-09-26T13:51:18.363Z,4.68
2022-09-26T13:53:58.361Z,2.53
2022-09-26T13:56:33.973Z,3.47
2022-09-26T13:59:12.414Z,4.97
2022-09-26T14:01:42.090Z,2.13
2022-09-26T14:04:41.814Z,2.35
2022-09-26T14:07:29.746Z,1.70
2022-09-26T14:10:02.121Z,4.68
2022-09-26T14:12:51.470Z,2.90
2022-09-26T14:15:26.924Z,4.03
2022-09-26T14:18:17.933Z,2.22
2022-09-26T14:21:14.400Z,5.55
2022-09-26T14:23:40.775Z,2.97
2022-09-26T14:26:19.649Z,2.50
2022-09-26T14:28:50.474Z,1.60
2022-09-26T14:31:26.245Z,2.10
2022-09-26T14:34:15.410Z,2.35
2022-09-26T14:36:43.649Z,1.73
2022-09-26T14:39:34.895Z,3.95
2022-09-26T14:42:57.381Z,2.00
2022-09-26T14:45:27.269Z,2.90
2022-09-26T14:48:15.494Z,1.85
2022-09-26T14:50:46.442Z,1.88
2022-09-26T14:53:22.256Z,1.83
2022-09-26T14:55:59.273Z,3.78
2022-09-26T14:58:36.287Z,9.52
2022-09-26T15:01:24.682Z,2.83
2022-09-26T15:03:55.644Z,4.45
2022-09-26T15:06:24.949Z,1.90
2022-09-26T15:08:53.058Z,2.20
2022-09-26T15:11:32.928Z,2.53
2022-09-26T15:14:06.635Z,3.13
2022-09-26T15:16:43.255Z,4.22
2022-09-26T15:19:16.251Z,2.00
2022-09-26T15:21:45.307Z,1.77
2022-09-26T15:24:24.643Z,3.00
2022-09-26T15:26:51.909Z,1.67
2022-09-26T15:29:18.486Z,3.30
2022-09-26T15:31:45.987Z,4.18
2022-09-26T15:34:36.593Z,4.20
2022-09-26T15:37:14.386Z,1.70
2022-09-26T15:39:42.568Z,2.92
2022-09-26T15:42:33.600Z,1.85
2022-09-26T15:45:15.643Z,3.10
2022-09-26T15:47:43.126Z,2.10
2022-09-26T15:50:13.636Z,3.92
2022-09-26T15:53:04.975Z,3.10
2022-09-26T15:55:38.127Z,4.03
2022-09-26T15:58:07.598Z,2.60
2022-09-26T16:00:37.556Z,2.88
2022-09-26T16:03:17.970Z,5.22
2022-09-26T16:05:48.491Z,2.50
2022-09-26T16:08:23.556Z,6.88
2022-09-26T16:11:00.152Z,3.63
2022-09-26T16:13:40.016Z,1.83
2022-09-26T16:16:12.815Z,4.07
2022-09-26T16:18:47.091Z,3.33
2022-09-26T16:21:16.009Z,5.47
2022-09-26T16:23:51.830Z,5.45
2022-09-26T16:26:43.166Z,5.10
2022-09-26T16:29:09.590Z,10.80
2022-09-26T16:31:46.995Z,3.38
2022-09-26T16:34:21.316Z,4.72
2022-09-26T16:36:48.203Z,5.80
2022-09-26T16:39:24.283Z,3.92
2022-09-26T16:42:01.920Z,2.88
2022-09-26T16:44:37.371Z,2.15
2022-09-26T16:47:07.277Z,2.58
2022-09-26T16:49:46.831Z,4.60
2022-09-26T16:52:31.923Z,5.38
2022-09-26T16:55:00.960Z,3.25
2022-09-26T16:57:33.226Z,4.63
2022-09-26T17:00:43.780Z,2.22
2022-09-26T17:03:37.302Z,2.72
2022-09-26T17:06:04.109Z,6.20
2022-09-26T17:08:30.435Z,3.60
2022-09-26T17:11:01.247Z,4.28
2022-09-26T17:13:32.859Z,1.73
2022-09-26T17:16:02.429Z,2.97
2022-09-26T17:18:32.357Z,2.38
2022-09-26T17:20:59.565Z,3.05
2022-09-26T17:23:42.512Z,4.20
2022-09-26T17:26:18.322Z,3.63
2022-09-26T17:28:45.578Z,4.95
2022-09-26T17:31:19.599Z,5.07
2022-09-26T17:33:49.222Z,7.00
2022-09-26T17:36:23.122Z,4.13
2022-09-26T17:38:49.755Z,3.10
2022-09-26T17:41:16.305Z,3.80
2022-09-26T17:43:43.796Z,5.43
2022-09-26T17:46:15.433Z,4.40
2022-09-26T17:48:43.534Z,3.47
2022-09-26T17:51:13.782Z,3.70
2022-09-26T17:53:50.176Z,3.55
2022-09-26T17:56:20.873Z,3.78
2022-09-26T17:58:48.988Z,4.07
2022-09-26T18:01:22.930Z,6.88
2022-09-26T18:03:52.740Z,3.88
2022-09-26T18:06:22.481Z,4.10
2022-09-26T18:08:49.301Z,5.20
2022-09-26T18:11:18.549Z,3.97
2022-09-26T18:13:54.782Z,3.85
2022-09-26T18:16:22.756Z,4.82
2022-09-26T18:18:49.830Z,3.53
2022-09-26T18:21:18.666Z,3.78
2022-09-26T18:23:51.794Z,5.00
2022-09-26T18:26:37.115Z,2.50
2022-09-26T18:29:07.917Z,2.58
2022-09-26T18:31:39.595Z,2.90
2022-09-26T18:34:11.951Z,3.78
2022-09-26T18:36:38.367Z,4.03
2022-09-26T18:39:04.732Z,4.63
2022-09-26T18:41:32.138Z,6.82
2022-09-26T18:44:00.548Z,4.13
2022-09-26T18:46:29.096Z,2.70
2022-09-26T18:49:00.139Z,4.03
2022-09-26T18:51:27.228Z,4.97
2022-09-26T18:53:53.796Z,3.83
2022-09-26T18:56:38.885Z,4.75
2022-09-26T18:59:05.235Z,5.85
2022-09-26T19:01:34.577Z,4.20
2022-09-26T19:04:04.333Z,4.55
2022-09-26T19:06:34.809Z,4.32
2022-09-26T19:09:04.610Z,3.97
2022-09-26T19:11:33.390Z,4.47
2022-09-26T19:14:16.411Z,3.35
2022-09-26T19:16:44.094Z,6.00
2022-09-26T19:19:10.943Z,5.97
2022-09-26T19:21:41.838Z,5.32
2022-09-26T19:24:21.186Z,4.43
2022-09-26T19:26:56.501Z,4.60
2022-09-26T19:29:58.337Z,8.38
2022-09-26T19:32:33.528Z,6.88
2022-09-26T19:35:28.248Z,3.92
2022-09-26T19:37:54.922Z,4.40
2022-09-26T19:40:22.618Z,5.22
2022-09-26T19:42:49.197Z,4.35
2022-09-26T19:45:16.908Z,3.08
2022-09-26T19:47:46.012Z,5.63
2022-09-26T19:50:17.818Z,7.00
2022-09-26T19:52:44.679Z,3.47
2022-09-26T19:55:16.501Z,4.05
2022-09-26T19:57:42.971Z,3.65
2022-09-26T20:00:11.532Z,7.60
2022-09-26T20:02:38.467Z,7.00
2022-09-26T20:05:21.731Z,3.38
2022-09-26T20:07:48.651Z,2.75
2022-09-26T20:10:17.919Z,2.00
2022-09-26T20:12:45.570Z,3.63
2022-09-26T20:15:13.539Z,2.28
2022-09-26T20:17:45.523Z,3.58
2022-09-26T20:20:32.314Z,1.48
2022-09-26T20:22:59.082Z,5.45
2022-09-26T20:25:27.828Z,5.70
2022-09-26T20:27:55.110Z,4.43
2022-09-26T20:30:40.991Z,2.70
2022-09-26T20:33:09.075Z,4.85
2022-09-26T20:35:42.643Z,1.65
2022-09-26T20:38:22.046Z,2.47
2022-09-26T20:40:49.164Z,4.45
2022-09-26T20:43:25.914Z,2.97
2022-09-26T20:45:52.484Z,5.82
2022-09-26T20:48:26.514Z,4.10
2022-09-26T20:50:53.381Z,3.03
2022-09-26T20:53:22.057Z,3.38
2022-09-26T20:55:53.451Z,5.00
2022-09-26T20:58:19.881Z,2.00
2022-09-26T21:00:47.079Z,2.15
2022-09-26T21:03:17.396Z,2.72
2022-09-26T21:05:44.399Z,3.80
2022-09-26T21:08:30.418Z,1.55
2022-09-26T21:10:57.772Z,7.40
2022-09-26T21:13:24.228Z,2.60
2022-09-26T21:15:52.441Z,2.83
2022-09-26T21:18:28.588Z,2.83
2022-09-26T21:21:05.526Z,2.72
2022-09-26T21:23:42.161Z,3.30
2022-09-26T21:26:28.521Z,3.50
2022-09-26T21:28:56.052Z,2.47
2022-09-26T21:31:27.490Z,3.20
2022-09-26T21:33:56.333Z,3.92
2022-09-26T21:36:24.579Z,2.97
2022-09-26T21:38:55.554Z,8.52
2022-09-26T21:41:22.679Z,4.95
2022-09-26T21:44:04.531Z,4.97
2022-09-26T21:46:31.008Z,4.28
2022-09-26T21:48:57.714Z,2.80
2022-09-26T21:51:28.151Z,2.13
2022-09-26T21:53:59.496Z,3.95
2022-09-26T21:56:32.554Z,3.60
2022-09-26T21:58:59.498Z,3.75
2022-09-26T22:01:25.943Z,3.97
2022-09-26T22:03:53.181Z,3.30
2022-09-26T22:06:19.596Z,2.60
2022-09-26T22:08:46.019Z,3.53
2022-09-26T22:11:14.408Z,1.95
2022-09-26T22:13:41.027Z,5.00
2022-09-26T22:16:10.632Z,2.53
2022-09-26T22:18:41.358Z,2.72
2022-09-26T22:21:09.750Z,3.05
2022-09-26T22:23:37.068Z,1.92
2022-09-26T22:26:04.235Z,1.70
2022-09-26T22:28:30.816Z,3.58
2022-09-26T22:31:04.752Z,2.97
2022-09-26T22:33:31.504Z,2.25
2022-09-26T22:35:57.917Z,2.67
2022-09-26T22:38:25.800Z,3.50
2022-09-26T22:41:00.471Z,2.72
2022-09-26T22:43:27.561Z,4.43
2022-09-26T22:46:00.674Z,3.95
2022-09-26T22:48:33.158Z,1.73
2022-09-26T22:50:59.863Z,10.40
2022-09-26T22:53:26.265Z,2.65
2022-09-26T22:55:57.555Z,2.17
2022-09-26T22:58:25.709Z,3.05
2022-09-26T23:00:52.336Z,4.43
2022-09-26T23:03:18.748Z,1.58
2022-09-26T23:05:47.458Z,1.92
2022-09-26T23:08:13.982Z,3.13
2022-09-26T23:10:48.134Z,1.98
2022-09-26T23:13:14.491Z,3.28
2022-09-26T23:15:40.884Z,2.05
2022-09-26T23:18:07.237Z,2.75
2022-09-26T23:20:33.911Z,1.90
2022-09-26T23:23:00.560Z,1.13
2022-09-26T23:25:26.889Z,2.95
2022-09-26T23:27:53.259Z,3.30
2022-09-26T23:30:19.671Z,1.35
2022-09-26T23:32:46.021Z,2.10
2022-09-26T23:35:12.400Z,3.65
2022-09-26T23:37:38.766Z,1.98
2022-09-26T23:40:05.653Z,1.30
2022-09-26T23:42:32.005Z,3.25
2022-09-26T23:44:58.416Z,1.85
2022-09-26T23:47:24.795Z,2.75
2022-09-26T23:49:51.376Z,5.25
2022-09-26T23:52:18.165Z,1.35
2022-09-26T23:54:44.556Z,2.10
2022-09-26T23:57:10.948Z,1.90
2022-09-26T23:59:37.373Z,2.58
